sensor_id;sensor_type;location;lat;lon;timestamp;P1;durP1;ratioP1;P2;durP2;ratioP2
66353;SDS011;53150;48.296;16.452;2022-10-13T00:01:55;12.20;;;5.72;;
66353;SDS011;53150;48.296;16.452;2022-10-13T00:04:21;9.07;;;6.20;;
66353;SDS011;53150;48.296;16.452;2022-10-13T00:06:47;10.70;;;6.63;;
66353;SDS011;53150;48.296;16.452;2022-10-13T00:09:13;12.63;;;6.38;;
66353;SDS011;53150;48.296;16.452;2022-10-13T00:11:39;11.07;;;6.70;;
66353;SDS011;53150;48.296;16.452;2022-10-13T00:14:05;12.32;;;6.43;;
66353;SDS011;53150;48.296;16.452;2022-10-13T00:16:31;9.82;;;6.25;;
66353;SDS011;53150;48.296;16.452;2022-10-13T00:18:57;11.20;;;6.28;;
66353;SDS011;53150;48.296;16.452;2022-10-13T00:21:24;11.77;;;7.45;;
66353;SDS011;53150;48.296;16.452;2022-10-13T00:23:51;9.63;;;6.05;;
66353;SDS011;53150;48.296;16.452;2022-10-13T00:26:18;10.57;;;6.10;;
66353;SDS011;53150;48.296;16.452;2022-10-13T00:28:44;12.02;;;6.72;;
66353;SDS011;53150;48.296;16.452;2022-10-13T00:34:02;11.37;;;6.73;;
66353;SDS011;53150;48.296;16.452;2022-10-13T00:36:29;10.45;;;6.82;;
66353;SDS011;53150;48.296;16.452;2022-10-13T00:38:55;11.20;;;6.95;;
66353;SDS011;53150;48.296;16.452;2022-10-13T00:41:22;11.90;;;6.55;;
66353;SDS011;53150;48.296;16.452;2022-10-13T00:46:14;9.63;;;6.05;;
66353;SDS011;53150;48.296;16.452;2022-10-13T00:48:41;10.85;;;7.60;;
66353;SDS011;53150;48.296;16.452;2022-10-13T00:51:08;11.73;;;6.88;;
66353;SDS011;53150;48.296;16.452;2022-10-13T00:53:35;10.80;;;6.35;;
66353;SDS011;53150;48.296;16.452;2022-10-13T00:56:02;10.45;;;7.13;;
66353;SDS011;53150;48.296;16.452;2022-10-13T00:58:29;14.07;;;7.55;;
66353;SDS011;53150;48.296;16.452;2022-10-13T01:00:57;10.45;;;6.75;;
66353;SDS011;53150;48.296;16.452;2022-10-13T01:03:23;11.77;;;7.13;;
66353;SDS011;53150;48.296;16.452;2022-10-13T01:05:50;9.95;;;6.35;;
66353;SDS011;53150;48.296;16.452;2022-10-13T01:08:17;11.60;;;7.03;;
66353;SDS011;53150;48.296;16.452;2022-10-13T01:10:50;13.07;;;6.85;;
66353;SDS011;53150;48.296;16.452;2022-10-13T01:13:32;10.25;;;6.90;;
66353;SDS011;53150;48.296;16.452;2022-10-13T01:19:09;11.35;;;7.00;;
66353;SDS011;53150;48.296;16.452;2022-10-13T01:21:17;11.90;;;6.43;;
66353;SDS011;53150;48.296;16.452;2022-10-13T01:31:46;12.73;;;7.03;;
66353;SDS011;53150;48.296;16.452;2022-10-13T01:39:12;11.57;;;6.90;;
66353;SDS011;53150;48.296;16.452;2022-10-13T01:41:45;12.90;;;7.57;;
66353;SDS011;53150;48.296;16.452;2022-10-13T01:44:16;12.95;;;7.57;;
66353;SDS011;53150;48.296;16.452;2022-10-13T01:46:45;13.05;;;8.13;;
66353;SDS011;53150;48.296;16.452;2022-10-13T01:49:13;13.35;;;7.57;;
66353;SDS011;53150;48.296;16.452;2022-10-13T01:51:41;12.27;;;7.65;;
66353;SDS011;53150;48.296;16.452;2022-10-13T01:54:07;13.60;;;7.45;;
66353;SDS011;53150;48.296;16.452;2022-10-13T01:56:33;12.23;;;7.95;;
66353;SDS011;53150;48.296;16.452;2022-10-13T01:59:01;14.27;;;8.40;;
66353;SDS011;53150;48.296;16.452;2022-10-13T02:09:13;12.77;;;7.80;;
66353;SDS011;53150;48.296;16.452;2022-10-13T02:11:46;11.93;;;7.57;;
66353;SDS011;53150;48.296;16.452;2022-10-13T02:14:21;11.88;;;8.05;;
66353;SDS011;53150;48.296;16.452;2022-10-13T02:16:50;11.68;;;7.57;;
66353;SDS011;53150;48.296;16.452;2022-10-13T02:19:18;12.18;;;7.75;;
66353;SDS011;53150;48.296;16.452;2022-10-13T02:21:44;12.23;;;8.25;;
66353;SDS011;53150;48.296;16.452;2022-10-13T02:24:11;12.77;;;7.90;;
66353;SDS011;53150;48.296;16.452;2022-10-13T02:26:38;13.48;;;8.48;;
66353;SDS011;53150;48.296;16.452;2022-10-13T02:29:11;11.38;;;7.43;;
66353;SDS011;53150;48.296;16.452;2022-10-13T02:31:37;11.60;;;8.43;;
66353;SDS011;53150;48.296;16.452;2022-10-13T02:34:04;13.20;;;8.05;;
66353;SDS011;53150;48.296;16.452;2022-10-13T02:36:30;13.45;;;8.05;;
66353;SDS011;53150;48.296;16.452;2022-10-13T02:38:56;12.85;;;8.50;;
66353;SDS011;53150;48.296;16.452;2022-10-13T02:41:22;13.55;;;8.45;;
66353;SDS011;53150;48.296;16.452;2022-10-13T02:43:48;13.10;;;9.07;;
66353;SDS011;53150;48.296;16.452;2022-10-13T02:46:14;14.68;;;9.18;;
66353;SDS011;53150;48.296;16.452;2022-10-13T02:48:40;14.60;;;9.27;;
66353;SDS011;53150;48.296;16.452;2022-10-13T02:51:07;14.98;;;8.82;;
66353;SDS011;53150;48.296;16.452;2022-10-13T02:53:33;15.23;;;8.75;;
66353;SDS011;53150;48.296;16.452;2022-10-13T02:55:59;13.07;;;8.88;;
66353;SDS011;53150;48.296;16.452;2022-10-13T02:58:25;12.90;;;8.63;;
66353;SDS011;53150;48.296;16.452;2022-10-13T03:00:51;13.05;;;8.77;;
66353;SDS011;53150;48.296;16.452;2022-10-13T03:03:17;13.52;;;8.60;;
66353;SDS011;53150;48.296;16.452;2022-10-13T03:05:43;13.45;;;8.98;;
66353;SDS011;53150;48.296;16.452;2022-10-13T03:08:09;12.70;;;8.43;;
66353;SDS011;53150;48.296;16.452;2022-10-13T03:10:35;14.13;;;9.10;;
66353;SDS011;53150;48.296;16.452;2022-10-13T03:13:01;14.68;;;9.27;;
66353;SDS011;53150;48.296;16.452;2022-10-13T03:15:27;18.38;;;9.57;;
66353;SDS011;53150;48.296;16.452;2022-10-13T03:17:53;12.60;;;8.57;;
66353;SDS011;53150;48.296;16.452;2022-10-13T03:20:19;15.80;;;9.50;;
66353;SDS011;53150;48.296;16.452;2022-10-13T03:22:45;13.63;;;9.10;;
66353;SDS011;53150;48.296;16.452;2022-10-13T03:25:11;13.88;;;9.75;;
66353;SDS011;53150;48.296;16.452;2022-10-13T03:27:37;14.02;;;8.43;;
66353;SDS011;53150;48.296;16.452;2022-10-13T03:30:03;12.30;;;8.48;;
66353;SDS011;53150;48.296;16.452;2022-10-13T03:32:29;14.32;;;8.70;;
66353;SDS011;53150;48.296;16.452;2022-10-13T03:34:55;14.30;;;8.48;;
66353;SDS011;53150;48.296;16.452;2022-10-13T03:37:21;11.57;;;7.85;;
66353;SDS011;53150;48.296;16.452;2022-10-13T03:39:47;13.77;;;8.63;;
66353;SDS011;53150;48.296;16.452;2022-10-13T03:42:13;12.48;;;8.93;;
66353;SDS011;53150;48.296;16.452;2022-10-13T03:44:39;17.17;;;9.60;;
66353;SDS011;53150;48.296;16.452;2022-10-13T03:47:05;15.18;;;8.70;;
66353;SDS011;53150;48.296;16.452;2022-10-13T03:49:31;15.30;;;8.75;;
66353;SDS011;53150;48.296;16.452;2022-10-13T03:51:57;16.17;;;8.95;;
66353;SDS011;53150;48.296;16.452;2022-10-13T03:54:23;16.42;;;10.65;;
66353;SDS011;53150;48.296;16.452;2022-10-13T03:56:49;15.65;;;10.57;;
66353;SDS011;53150;48.296;16.452;2022-10-13T03:59:15;15.13;;;9.60;;
66353;SDS011;53150;48.296;16.452;2022-10-13T04:01:42;14.90;;;9.68;;
66353;SDS011;53150;48.296;16.452;2022-10-13T04:04:09;16.52;;;9.43;;
66353;SDS011;53150;48.296;16.452;2022-10-13T04:06:36;15.15;;;9.32;;
66353;SDS011;53150;48.296;16.452;2022-10-13T04:09:02;15.00;;;9.50;;
66353;SDS011;53150;48.296;16.452;2022-10-13T04:11:28;14.23;;;9.07;;
66353;SDS011;53150;48.296;16.452;2022-10-13T04:13:57;15.48;;;9.15;;
66353;SDS011;53150;48.296;16.452;2022-10-13T04:16:24;14.48;;;8.85;;
66353;SDS011;53150;48.296;16.452;2022-10-13T04:19:00;13.57;;;8.07;;
66353;SDS011;53150;48.296;16.452;2022-10-13T04:21:27;14.45;;;8.45;;
66353;SDS011;53150;48.296;16.452;2022-10-13T04:23:54;14.50;;;8.57;;
66353;SDS011;53150;48.296;16.452;2022-10-13T04:26:21;15.13;;;9.30;;
66353;SDS011;53150;48.296;16.452;2022-10-13T04:28:48;13.88;;;8.40;;
66353;SDS011;53150;48.296;16.452;2022-10-13T04:31:14;14.07;;;8.82;;
66353;SDS011;53150;48.296;16.452;2022-10-13T04:33:41;13.30;;;8.55;;
66353;SDS011;53150;48.296;16.452;2022-10-13T04:36:09;15.05;;;8.77;;
66353;SDS011;53150;48.296;16.452;2022-10-13T04:38:35;13.07;;;8.52;;
66353;SDS011;53150;48.296;16.452;2022-10-13T04:41:04;13.30;;;8.43;;
66353;SDS011;53150;48.296;16.452;2022-10-13T04:43:31;14.38;;;8.65;;
66353;SDS011;53150;48.296;16.452;2022-10-13T04:46:04;14.40;;;9.20;;
66353;SDS011;53150;48.296;16.452;2022-10-13T04:48:31;14.13;;;8.70;;
66353;SDS011;53150;48.296;16.452;2022-10-13T04:51:16;14.05;;;8.98;;
66353;SDS011;53150;48.296;16.452;2022-10-13T04:53:43;13.55;;;9.32;;
66353;SDS011;53150;48.296;16.452;2022-10-13T04:56:10;16.35;;;10.55;;
66353;SDS011;53150;48.296;16.452;2022-10-13T04:58:37;18.88;;;10.00;;
66353;SDS011;53150;48.296;16.452;2022-10-13T05:01:04;16.60;;;9.73;;
66353;SDS011;53150;48.296;16.452;2022-10-13T05:03:31;20.40;;;10.60;;
66353;SDS011;53150;48.296;16.452;2022-10-13T05:05:57;14.00;;;9.85;;
66353;SDS011;53150;48.296;16.452;2022-10-13T05:08:23;15.23;;;9.30;;
66353;SDS011;53150;48.296;16.452;2022-10-13T05:10:56;17.45;;;10.23;;
66353;SDS011;53150;48.296;16.452;2022-10-13T05:13:22;17.40;;;10.93;;
66353;SDS011;53150;48.296;16.452;2022-10-13T05:15:49;18.85;;;10.18;;
66353;SDS011;53150;48.296;16.452;2022-10-13T05:18:15;16.63;;;10.23;;
66353;SDS011;53150;48.296;16.452;2022-10-13T05:20:41;15.55;;;9.95;;
66353;SDS011;53150;48.296;16.452;2022-10-13T05:23:07;17.92;;;10.48;;
66353;SDS011;53150;48.296;16.452;2022-10-13T05:25:35;16.00;;;10.23;;
66353;SDS011;53150;48.296;16.452;2022-10-13T05:28:02;14.45;;;9.38;;
66353;SDS011;53150;48.296;16.452;2022-10-13T05:30:28;14.43;;;9.30;;
66353;SDS011;53150;48.296;16.452;2022-10-13T05:32:54;18.85;;;10.23;;
66353;SDS011;53150;48.296;16.452;2022-10-13T05:35:22;17.42;;;9.13;;
66353;SDS011;53150;48.296;16.452;2022-10-13T05:37:49;15.93;;;10.30;;
66353;SDS011;53150;48.296;16.452;2022-10-13T05:40:15;18.58;;;10.20;;
66353;SDS011;53150;48.296;16.452;2022-10-13T05:42:41;18.52;;;10.30;;
66353;SDS011;53150;48.296;16.452;2022-10-13T05:45:07;18.65;;;10.68;;
66353;SDS011;53150;48.296;16.452;2022-10-13T05:47:34;14.23;;;9.75;;
66353;SDS011;53150;48.296;16.452;2022-10-13T05:50:00;17.45;;;9.70;;
66353;SDS011;53150;48.296;16.452;2022-10-13T05:52:26;17.48;;;10.52;;
66353;SDS011;53150;48.296;16.452;2022-10-13T05:54:54;18.95;;;10.80;;
66353;SDS011;53150;48.296;16.452;2022-10-13T05:57:22;16.52;;;9.90;;
66353;SDS011;53150;48.296;16.452;2022-10-13T06:00:05;18.48;;;10.02;;
66353;SDS011;53150;48.296;16.452;2022-10-13T06:02:37;15.57;;;10.02;;
66353;SDS011;53150;48.296;16.452;2022-10-13T06:05:04;14.13;;;9.30;;
66353;SDS011;53150;48.296;16.452;2022-10-13T06:07:32;13.80;;;9.43;;
66353;SDS011;53150;48.296;16.452;2022-10-13T06:09:58;18.10;;;10.07;;
66353;SDS011;53150;48.296;16.452;2022-10-13T06:12:26;16.30;;;10.18;;
66353;SDS011;53150;48.296;16.452;2022-10-13T06:14:52;17.20;;;10.40;;
66353;SDS011;53150;48.296;16.452;2022-10-13T06:17:18;14.65;;;9.02;;
66353;SDS011;53150;48.296;16.452;2022-10-13T06:19:44;16.02;;;10.15;;
66353;SDS011;53150;48.296;16.452;2022-10-13T06:22:10;14.65;;;9.23;;
66353;SDS011;53150;48.296;16.452;2022-10-13T06:24:37;15.50;;;9.43;;
66353;SDS011;53150;48.296;16.452;2022-10-13T06:27:04;14.95;;;9.15;;
66353;SDS011;53150;48.296;16.452;2022-10-13T06:29:30;17.60;;;9.75;;
66353;SDS011;53150;48.296;16.452;2022-10-13T06:31:57;17.08;;;9.98;;
66353;SDS011;53150;48.296;16.452;2022-10-13T06:34:23;15.93;;;9.98;;
66353;SDS011;53150;48.296;16.452;2022-10-13T06:36:49;15.65;;;8.93;;
66353;SDS011;53150;48.296;16.452;2022-10-13T06:39:15;14.10;;;9.55;;
66353;SDS011;53150;48.296;16.452;2022-10-13T06:41:41;14.82;;;9.35;;
66353;SDS011;53150;48.296;16.452;2022-10-13T06:44:07;20.35;;;10.27;;
66353;SDS011;53150;48.296;16.452;2022-10-13T06:46:33;16.73;;;9.43;;
66353;SDS011;53150;48.296;16.452;2022-10-13T06:48:59;16.80;;;10.15;;
66353;SDS011;53150;48.296;16.452;2022-10-13T06:51:25;16.58;;;10.55;;
66353;SDS011;53150;48.296;16.452;2022-10-13T06:53:52;17.42;;;10.45;;
66353;SDS011;53150;48.296;16.452;2022-10-13T06:56:20;21.08;;;10.77;;
66353;SDS011;53150;48.296;16.452;2022-10-13T06:58:47;17.23;;;10.77;;
66353;SDS011;53150;48.296;16.452;2022-10-13T07:01:13;18.48;;;11.07;;
66353;SDS011;53150;48.296;16.452;2022-10-13T07:03:39;17.80;;;11.02;;
66353;SDS011;53150;48.296;16.452;2022-10-13T07:06:05;18.77;;;10.77;;
66353;SDS011;53150;48.296;16.452;2022-10-13T07:08:32;17.67;;;11.32;;
66353;SDS011;53150;48.296;16.452;2022-10-13T07:11:04;16.45;;;10.10;;
66353;SDS011;53150;48.296;16.452;2022-10-13T07:13:30;15.27;;;9.57;;
66353;SDS011;53150;48.296;16.452;2022-10-13T07:15:56;16.88;;;10.38;;
66353;SDS011;53150;48.296;16.452;2022-10-13T07:18:22;17.02;;;9.80;;
66353;SDS011;53150;48.296;16.452;2022-10-13T07:20:48;21.02;;;9.85;;
66353;SDS011;53150;48.296;16.452;2022-10-13T07:23:14;17.60;;;9.60;;
66353;SDS011;53150;48.296;16.452;2022-10-13T07:25:40;18.20;;;10.15;;
66353;SDS011;53150;48.296;16.452;2022-10-13T07:28:07;14.35;;;9.85;;
66353;SDS011;53150;48.296;16.452;2022-10-13T07:30:33;14.32;;;8.98;;
66353;SDS011;53150;48.296;16.452;2022-10-13T07:32:59;18.65;;;9.90;;
66353;SDS011;53150;48.296;16.452;2022-10-13T07:35:25;18.52;;;9.82;;
66353;SDS011;53150;48.296;16.452;2022-10-13T07:37:51;15.07;;;8.90;;
66353;SDS011;53150;48.296;16.452;2022-10-13T07:40:18;14.18;;;9.52;;
66353;SDS011;53150;48.296;16.452;2022-10-13T07:42:44;17.95;;;9.27;;
66353;SDS011;53150;48.296;16.452;2022-10-13T07:45:10;16.60;;;9.38;;
66353;SDS011;53150;48.296;16.452;2022-10-13T07:47:36;18.17;;;10.45;;
66353;SDS011;53150;48.296;16.452;2022-10-13T07:50:02;17.45;;;9.75;;
66353;SDS011;53150;48.296;16.452;2022-10-13T07:52:28;14.57;;;9.50;;
66353;SDS011;53150;48.296;16.452;2022-10-13T07:54:54;18.98;;;10.50;;
66353;SDS011;53150;48.296;16.452;2022-10-13T07:57:24;18.13;;;11.52;;
66353;SDS011;53150;48.296;16.452;2022-10-13T07:59:51;16.95;;;10.35;;
66353;SDS011;53150;48.296;16.452;2022-10-13T08:02:17;16.48;;;10.10;;
66353;SDS011;53150;48.296;16.452;2022-10-13T08:04:43;19.60;;;10.32;;
66353;SDS011;53150;48.296;16.452;2022-10-13T08:07:09;19.25;;;10.40;;
66353;SDS011;53150;48.296;16.452;2022-10-13T08:09:35;15.65;;;10.00;;
66353;SDS011;53150;48.296;16.452;2022-10-13T08:12:02;17.30;;;10.77;;
66353;SDS011;53150;48.296;16.452;2022-10-13T08:14:28;19.45;;;10.43;;
66353;SDS011;53150;48.296;16.452;2022-10-13T08:16:56;19.08;;;10.65;;
66353;SDS011;53150;48.296;16.452;2022-10-13T08:19:22;20.55;;;11.25;;
66353;SDS011;53150;48.296;16.452;2022-10-13T08:21:50;16.05;;;10.05;;
66353;SDS011;53150;48.296;16.452;2022-10-13T08:24:17;19.52;;;10.13;;
66353;SDS011;53150;48.296;16.452;2022-10-13T08:26:44;19.98;;;10.88;;
66353;SDS011;53150;48.296;16.452;2022-10-13T08:29:11;19.08;;;10.18;;
66353;SDS011;53150;48.296;16.452;2022-10-13T08:31:37;20.88;;;10.73;;
66353;SDS011;53150;48.296;16.452;2022-10-13T08:34:03;20.10;;;11.13;;
66353;SDS011;53150;48.296;16.452;2022-10-13T08:36:29;18.65;;;10.85;;
66353;SDS011;53150;48.296;16.452;2022-10-13T08:38:56;22.52;;;11.23;;
66353;SDS011;53150;48.296;16.452;2022-10-13T08:41:23;23.33;;;12.45;;
66353;SDS011;53150;48.296;16.452;2022-10-13T08:43:50;26.27;;;12.82;;
66353;SDS011;53150;48.296;16.452;2022-10-13T08:46:28;20.23;;;11.02;;
66353;SDS011;53150;48.296;16.452;2022-10-13T08:48:55;20.65;;;11.63;;
66353;SDS011;53150;48.296;16.452;2022-10-13T08:51:22;24.35;;;12.75;;
66353;SDS011;53150;48.296;16.452;2022-10-13T08:53:48;24.27;;;12.38;;
66353;SDS011;53150;48.296;16.452;2022-10-13T08:56:16;22.70;;;12.07;;
66353;SDS011;53150;48.296;16.452;2022-10-13T08:58:46;23.63;;;12.30;;
66353;SDS011;53150;48.296;16.452;2022-10-13T09:01:14;22.90;;;13.30;;
66353;SDS011;53150;48.296;16.452;2022-10-13T09:06:13;24.13;;;13.63;;
66353;SDS011;53150;48.296;16.452;2022-10-13T09:08:50;21.40;;;12.15;;
66353;SDS011;53150;48.296;16.452;2022-10-13T09:11:17;24.05;;;12.75;;
66353;SDS011;53150;48.296;16.452;2022-10-13T09:13:43;24.83;;;13.98;;
66353;SDS011;53150;48.296;16.452;2022-10-13T09:16:10;24.70;;;14.52;;
66353;SDS011;53150;48.296;16.452;2022-10-13T09:18:36;23.67;;;14.05;;
66353;SDS011;53150;48.296;16.452;2022-10-13T09:21:19;25.17;;;14.23;;
66353;SDS011;53150;48.296;16.452;2022-10-13T09:23:45;27.05;;;14.65;;
66353;SDS011;53150;48.296;16.452;2022-10-13T09:26:20;24.88;;;13.85;;
66353;SDS011;53150;48.296;16.452;2022-10-13T09:28:47;28.88;;;14.38;;
66353;SDS011;53150;48.296;16.452;2022-10-13T09:31:26;30.13;;;13.85;;
66353;SDS011;53150;48.296;16.452;2022-10-13T09:33:58;29.88;;;13.75;;
66353;SDS011;53150;48.296;16.452;2022-10-13T09:36:24;24.80;;;12.13;;
66353;SDS011;53150;48.296;16.452;2022-10-13T09:41:49;27.65;;;13.35;;
66353;SDS011;53150;48.296;16.452;2022-10-13T09:44:16;27.45;;;14.30;;
66353;SDS011;53150;48.296;16.452;2022-10-13T09:46:47;30.50;;;14.07;;
66353;SDS011;53150;48.296;16.452;2022-10-13T09:49:37;28.48;;;15.18;;
66353;SDS011;53150;48.296;16.452;2022-10-13T09:52:13;26.33;;;13.55;;
66353;SDS011;53150;48.296;16.452;2022-10-13T09:57:10;29.27;;;14.98;;
66353;SDS011;53150;48.296;16.452;2022-10-13T09:59:42;29.90;;;15.85;;
66353;SDS011;53150;48.296;16.452;2022-10-13T10:02:18;32.75;;;14.88;;
66353;SDS011;53150;48.296;16.452;2022-10-13T10:04:45;28.88;;;16.50;;
66353;SDS011;53150;48.296;16.452;2022-10-13T10:07:14;30.13;;;15.63;;
66353;SDS011;53150;48.296;16.452;2022-10-13T10:09:45;33.45;;;15.43;;
66353;SDS011;53150;48.296;16.452;2022-10-13T10:12:14;28.00;;;15.40;;
66353;SDS011;53150;48.296;16.452;2022-10-13T10:14:41;33.30;;;15.27;;
66353;SDS011;53150;48.296;16.452;2022-10-13T10:27:42;30.42;;;15.75;;
66353;SDS011;53150;48.296;16.452;2022-10-13T10:30:13;27.58;;;15.38;;
66353;SDS011;53150;48.296;16.452;2022-10-13T10:32:58;31.02;;;15.48;;
66353;SDS011;53150;48.296;16.452;2022-10-13T10:35:35;36.15;;;16.02;;
66353;SDS011;53150;48.296;16.452;2022-10-13T10:43:18;33.80;;;16.27;;
66353;SDS011;53150;48.296;16.452;2022-10-13T10:45:47;33.92;;;15.65;;
66353;SDS011;53150;48.296;16.452;2022-10-13T10:48:33;35.15;;;16.27;;
66353;SDS011;53150;48.296;16.452;2022-10-13T10:51:00;30.35;;;16.33;;
66353;SDS011;53150;48.296;16.452;2022-10-13T10:55:59;32.33;;;17.05;;
66353;SDS011;53150;48.296;16.452;2022-10-13T11:06:35;34.05;;;17.33;;
66353;SDS011;53150;48.296;16.452;2022-10-13T11:09:02;31.52;;;16.48;;
66353;SDS011;53150;48.296;16.452;2022-10-13T11:11:30;26.17;;;14.75;;
66353;SDS011;53150;48.296;16.452;2022-10-13T11:16:33;29.63;;;15.35;;
66353;SDS011;53150;48.296;16.452;2022-10-13T11:37:25;24.30;;;13.57;;
66353;SDS011;53150;48.296;16.452;2022-10-13T11:39:57;26.83;;;14.55;;
66353;SDS011;53150;48.296;16.452;2022-10-13T11:42:41;24.42;;;13.38;;
66353;SDS011;53150;48.296;16.452;2022-10-13T11:55:28;24.25;;;14.25;;
66353;SDS011;53150;48.296;16.452;2022-10-13T11:58:11;26.73;;;15.25;;
66353;SDS011;53150;48.296;16.452;2022-10-13T12:03:17;27.77;;;15.63;;
66353;SDS011;53150;48.296;16.452;2022-10-13T12:05:46;27.95;;;15.90;;
66353;SDS011;53150;48.296;16.452;2022-10-13T12:08:12;31.02;;;14.65;;
66353;SDS011;53150;48.296;16.452;2022-10-13T12:10:39;28.60;;;15.55;;
66353;SDS011;53150;48.296;16.452;2022-10-13T12:13:06;27.67;;;13.88;;
66353;SDS011;53150;48.296;16.452;2022-10-13T12:15:37;23.52;;;13.23;;
66353;SDS011;53150;48.296;16.452;2022-10-13T12:18:24;27.05;;;14.63;;
66353;SDS011;53150;48.296;16.452;2022-10-13T12:20:52;32.60;;;16.77;;
66353;SDS011;53150;48.296;16.452;2022-10-13T12:23:19;27.85;;;15.80;;
66353;SDS011;53150;48.296;16.452;2022-10-13T12:25:46;30.35;;;15.27;;
66353;SDS011;53150;48.296;16.452;2022-10-13T12:28:18;25.73;;;16.75;;
66353;SDS011;53150;48.296;16.452;2022-10-13T12:30:55;27.30;;;16.10;;
66353;SDS011;53150;48.296;16.452;2022-10-13T12:33:32;29.52;;;18.08;;
66353;SDS011;53150;48.296;16.452;2022-10-13T12:38:38;29.98;;;18.08;;
66353;SDS011;53150;48.296;16.452;2022-10-13T12:41:08;30.60;;;17.58;;
66353;SDS011;53150;48.296;16.452;2022-10-13T12:43:35;31.27;;;18.05;;
66353;SDS011;53150;48.296;16.452;2022-10-13T12:46:02;31.65;;;19.10;;
66353;SDS011;53150;48.296;16.452;2022-10-13T12:48:29;26.15;;;17.15;;
66353;SDS011;53150;48.296;16.452;2022-10-13T12:51:05;28.10;;;17.55;;
66353;SDS011;53150;48.296;16.452;2022-10-13T12:53:31;33.42;;;19.15;;
66353;SDS011;53150;48.296;16.452;2022-10-13T12:55:58;32.22;;;18.52;;
66353;SDS011;53150;48.296;16.452;2022-10-13T12:58:29;33.42;;;17.92;;
66353;SDS011;53150;48.296;16.452;2022-10-13T13:03:23;31.10;;;17.77;;
66353;SDS011;53150;48.296;16.452;2022-10-13T13:06:05;25.92;;;16.02;;
66353;SDS011;53150;48.296;16.452;2022-10-13T13:08:31;24.73;;;15.93;;
66353;SDS011;53150;48.296;16.452;2022-10-13T13:10:58;30.90;;;17.05;;
66353;SDS011;53150;48.296;16.452;2022-10-13T13:13:24;29.98;;;17.13;;
66353;SDS011;53150;48.296;16.452;2022-10-13T13:15:51;30.98;;;18.23;;
66353;SDS011;53150;48.296;16.452;2022-10-13T13:18:35;29.30;;;16.92;;
66353;SDS011;53150;48.296;16.452;2022-10-13T13:21:21;26.92;;;15.68;;
66353;SDS011;53150;48.296;16.452;2022-10-13T13:23:47;28.90;;;14.98;;
66353;SDS011;53150;48.296;16.452;2022-10-13T13:28:44;26.38;;;16.15;;
66353;SDS011;53150;48.296;16.452;2022-10-13T13:31:11;26.92;;;16.70;;
66353;SDS011;53150;48.296;16.452;2022-10-13T13:33:37;28.88;;;17.67;;
66353;SDS011;53150;48.296;16.452;2022-10-13T13:36:03;32.97;;;17.75;;
66353;SDS011;53150;48.296;16.452;2022-10-13T13:38:30;29.67;;;18.90;;
66353;SDS011;53150;48.296;16.452;2022-10-13T13:40:56;27.88;;;18.30;;
66353;SDS011;53150;48.296;16.452;2022-10-13T13:43:22;27.42;;;15.68;;
66353;SDS011;53150;48.296;16.452;2022-10-13T13:45:48;26.55;;;15.13;;
66353;SDS011;53150;48.296;16.452;2022-10-13T13:48:14;25.95;;;16.55;;
66353;SDS011;53150;48.296;16.452;2022-10-13T13:50:40;27.33;;;16.63;;
66353;SDS011;53150;48.296;16.452;2022-10-13T13:53:06;26.55;;;16.10;;
66353;SDS011;53150;48.296;16.452;2022-10-13T13:55:32;31.52;;;17.17;;
66353;SDS011;53150;48.296;16.452;2022-10-13T13:57:59;25.25;;;15.13;;
66353;SDS011;53150;48.296;16.452;2022-10-13T14:00:25;26.77;;;17.02;;
66353;SDS011;53150;48.296;16.452;2022-10-13T14:02:51;29.88;;;17.60;;
66353;SDS011;53150;48.296;16.452;2022-10-13T14:05:18;24.42;;;15.52;;
66353;SDS011;53150;48.296;16.452;2022-10-13T14:07:44;30.23;;;17.95;;
66353;SDS011;53150;48.296;16.452;2022-10-13T14:10:10;27.92;;;16.83;;
66353;SDS011;53150;48.296;16.452;2022-10-13T14:12:36;29.13;;;18.05;;
66353;SDS011;53150;48.296;16.452;2022-10-13T14:15:03;27.35;;;16.83;;
66353;SDS011;53150;48.296;16.452;2022-10-13T14:17:29;30.25;;;17.50;;
66353;SDS011;53150;48.296;16.452;2022-10-13T14:19:55;27.98;;;16.02;;
66353;SDS011;53150;48.296;16.452;2022-10-13T14:22:21;29.40;;;16.45;;
66353;SDS011;53150;48.296;16.452;2022-10-13T14:24:47;30.10;;;15.65;;
66353;SDS011;53150;48.296;16.452;2022-10-13T14:27:13;28.33;;;16.40;;
66353;SDS011;53150;48.296;16.452;2022-10-13T14:29:39;23.92;;;15.45;;
66353;SDS011;53150;48.296;16.452;2022-10-13T14:32:05;23.63;;;15.35;;
66353;SDS011;53150;48.296;16.452;2022-10-13T14:34:31;25.92;;;15.45;;
66353;SDS011;53150;48.296;16.452;2022-10-13T14:36:57;22.40;;;14.02;;
66353;SDS011;53150;48.296;16.452;2022-10-13T14:39:24;23.38;;;14.02;;
66353;SDS011;53150;48.296;16.452;2022-10-13T14:41:52;19.95;;;13.02;;
66353;SDS011;53150;48.296;16.452;2022-10-13T14:44:18;22.00;;;13.35;;
66353;SDS011;53150;48.296;16.452;2022-10-13T14:46:44;19.23;;;12.55;;
66353;SDS011;53150;48.296;16.452;2022-10-13T14:49:10;24.75;;;13.23;;
66353;SDS011;53150;48.296;16.452;2022-10-13T14:51:36;23.20;;;13.23;;
66353;SDS011;53150;48.296;16.452;2022-10-13T14:54:02;22.13;;;12.70;;
66353;SDS011;53150;48.296;16.452;2022-10-13T14:56:30;22.98;;;14.30;;
66353;SDS011;53150;48.296;16.452;2022-10-13T14:58:56;21.25;;;13.30;;
66353;SDS011;53150;48.296;16.452;2022-10-13T15:01:22;21.25;;;13.23;;
66353;SDS011;53150;48.296;16.452;2022-10-13T15:03:49;21.30;;;13.15;;
66353;SDS011;53150;48.296;16.452;2022-10-13T15:06:19;21.83;;;13.43;;
66353;SDS011;53150;48.296;16.452;2022-10-13T15:08:46;22.55;;;12.68;;
66353;SDS011;53150;48.296;16.452;2022-10-13T15:11:12;19.88;;;11.82;;
66353;SDS011;53150;48.296;16.452;2022-10-13T15:13:39;23.15;;;12.35;;
66353;SDS011;53150;48.296;16.452;2022-10-13T15:16:05;19.92;;;12.75;;
66353;SDS011;53150;48.296;16.452;2022-10-13T15:18:33;19.20;;;12.70;;
66353;SDS011;53150;48.296;16.452;2022-10-13T15:21:02;21.98;;;12.60;;
66353;SDS011;53150;48.296;16.452;2022-10-13T15:23:28;20.27;;;12.38;;
66353;SDS011;53150;48.296;16.452;2022-10-13T15:25:55;19.90;;;12.15;;
66353;SDS011;53150;48.296;16.452;2022-10-13T15:28:22;20.38;;;12.18;;
66353;SDS011;53150;48.296;16.452;2022-10-13T15:30:49;21.60;;;13.30;;
66353;SDS011;53150;48.296;16.452;2022-10-13T15:33:15;19.63;;;12.43;;
66353;SDS011;53150;48.296;16.452;2022-10-13T15:35:41;21.48;;;12.85;;
66353;SDS011;53150;48.296;16.452;2022-10-13T15:38:08;18.52;;;12.40;;
66353;SDS011;53150;48.296;16.452;2022-10-13T15:40:37;20.73;;;12.57;;
66353;SDS011;53150;48.296;16.452;2022-10-13T15:43:03;24.88;;;14.18;;
66353;SDS011;53150;48.296;16.452;2022-10-13T15:45:30;21.20;;;12.52;;
66353;SDS011;53150;48.296;16.452;2022-10-13T15:47:56;23.23;;;13.40;;
66353;SDS011;53150;48.296;16.452;2022-10-13T15:50:23;26.02;;;14.18;;
66353;SDS011;53150;48.296;16.452;2022-10-13T15:52:49;23.92;;;13.13;;
66353;SDS011;53150;48.296;16.452;2022-10-13T15:55:15;24.15;;;13.52;;
66353;SDS011;53150;48.296;16.452;2022-10-13T15:57:41;26.13;;;13.85;;
66353;SDS011;53150;48.296;16.452;2022-10-13T16:00:08;23.20;;;13.10;;
66353;SDS011;53150;48.296;16.452;2022-10-13T16:02:35;24.30;;;13.18;;